ADDS METAR Data INFO
IDs: Format: Raw Decoded Include TAF

Data at: 1304 UTC 19 Jul 2018

KJAQ 191215Z AUTO 00000KT 10SM CLR 24/11 A2994 RMK AO1 T02400107
KJAQ 191155Z AUTO 00000KT 10SM CLR 26/11 A2994 RMK AO1 T02550107 10265 20238
KJAQ 191135Z AUTO 08004KT 10SM CLR 26/12 A2994 RMK AO1 T02570115
KJAQ 191115Z AUTO 29005KT 10SM CLR 26/12 A2993 RMK AO1 T02610116
KJAQ 191055Z AUTO 00000KT 10SM CLR 25/12 A2993 RMK AO1 T02520118
KJAQ 191035Z AUTO 00000KT 10SM CLR 25/12 A2993 RMK AO1 T02450120
KJAQ 191015Z AUTO 00000KT 10SM CLR 24/12 A2993 RMK AO1 T02440120
KJAQ 190955Z AUTO 19004KT 10SM CLR 26/12 A2993 RMK AO1 T02570117
KJAQ 190935Z AUTO 00000KT 10SM CLR 26/12 A2994 RMK AO1 T02600116
KJAQ 190855Z AUTO 03003KT 10SM CLR 26/12 A2994 RMK AO1 T02560120
KJAQ 190835Z AUTO 00000KT 10SM CLR 26/12 A2995 RMK AO1 T02560121
KJAQ 190815Z AUTO 00000KT 10SM CLR 24/13 A2995 RMK AO1 T02420125
KJAQ 190755Z AUTO 00000KT 10SM CLR 24/13 A2996 RMK AO1 T02420127 403810230
KJAQ 190735Z AUTO 00000KT 10SM CLR 24/13 A2996 RMK AO1 T02420125
KJAQ 190715Z AUTO 00000KT 10SM CLR 25/12 A2996 RMK AO1 T02510123
KJAQ 190655Z AUTO 00000KT 10SM CLR 25/13 A2996 RMK AO1 T02480126
KJAQ 190635Z AUTO 00000KT 10SM CLR 25/12 A2997 RMK AO1 T02490120
KJAQ 190615Z AUTO 17003KT 10SM CLR 26/12 A2996 RMK AO1 T02580122
KJAQ 190555Z AUTO 13003KT 10SM CLR 26/13 A2996 RMK AO1 T02640125 10381 20262
KJAQ 190535Z AUTO 15003KT 10SM CLR 27/12 A2996 RMK AO1 T02650120
KJAQ 190515Z AUTO 11003KT 10SM CLR 27/12 A2997 RMK AO1 T02670118
KJAQ 190455Z AUTO 14003KT 10SM CLR 28/12 A2996 RMK AO1 T02750117
KJAQ 190435Z AUTO 00000KT 10SM CLR 29/13 A2996 RMK AO1 T02870132
KJAQ 190415Z AUTO 20007KT 10SM CLR 29/12 A2995 RMK AO1 T02940121
KJAQ 190355Z AUTO 27004KT 10SM CLR 31/12 A2995 RMK AO1 T03080120
KJAQ 190335Z AUTO 29006KT 10SM CLR 32/11 A2994 RMK AO1 T03150112
KJAQ 190315Z AUTO 28005KT 10SM CLR 32/11 A2993 RMK AO1 T03220108
KJAQ 190255Z AUTO 27006KT 10SM CLR 33/11 A2993 RMK AO1 T03330105
KJAQ 190235Z AUTO 26007KT 10SM CLR 34/11 A2994 RMK AO1 T03410110
KJAQ 190215Z AUTO 28008KT 260V330 10SM CLR 35/12 A2994 RMK AO1 T03500116
KJAQ 190155Z AUTO 26008KT 10SM CLR 36/12 A2994 RMK AO1 T03550118
KJAQ 190135Z AUTO 27009KT 10SM CLR 36/12 A2993 RMK AO1 T03630117
KJAQ 190055Z AUTO 28008KT 260V330 10SM CLR 37/10 A2993 RMK AO1 T03720097
KJAQ 190035Z AUTO 33004KT 10SM CLR 38/10 A2994 RMK AO1 T03770095
KJAQ 190015Z AUTO 32009KT 290V350 10SM CLR 38/10 A2994 RMK AO1 T03770100
KJAQ 182355Z AUTO 30007KT 270V340 10SM CLR 38/10 A2994 RMK AO1 T03800101 10380 20321
KJAQ 182335Z AUTO 30007KT 280V350 10SM CLR 38/10 A2995 RMK AO1 T03780098
KJAQ 182315Z AUTO 32007KT 290V350 10SM CLR 38/10 A2995 RMK AO1 T03780101
KJAQ 182255Z AUTO 30006KT 10SM CLR 37/11 A2995 RMK AO1 T03720109
KJAQ 182235Z AUTO 31006KT 10SM CLR 37/11 A2996 RMK AO1 T03700109
KJAQ 182215Z AUTO 27007KT 10SM CLR 37/11 A2997 RMK AO1 T03700109
KJAQ 182155Z AUTO 30005KT 10SM CLR 37/11 A2998 RMK AO1 T03660107
KJAQ 182135Z AUTO 32008KT 10SM CLR 36/12 A2998 RMK AO1 T03640115
KJAQ 182115Z AUTO 26007KT 10SM CLR 37/12 A2998 RMK AO1 T03650117
KJAQ 182055Z AUTO 31006KT 10SM CLR 36/12 A2999 RMK AO1 T03580115
KJAQ 182015Z AUTO 27007KT 250V310 10SM CLR 35/12 A3001 RMK AO1 T03530120
KJAQ 181955Z AUTO 25004KT 10SM CLR 34/12 A3001 RMK AO1 T03410116
KJAQ 181935Z AUTO 25008KT 10SM CLR 35/12 A3002 RMK AO1 T03480116
KJAQ 181915Z AUTO 29007KT 10SM CLR 34/12 A3001 RMK AO1 T03420116
KJAQ 181855Z AUTO 26007KT 10SM CLR 33/12 A3002 RMK AO1 T03320120
KJAQ 181835Z AUTO 27005KT 10SM CLR 34/12 A3002 RMK AO1 T03360122
KJAQ 181815Z AUTO 27006KT 10SM CLR 33/12 A3002 RMK AO1 T03280124
KJAQ 181735Z AUTO 25005KT 10SM CLR 32/12 A3002 RMK AO1 T03240124
KJAQ 181715Z AUTO 00000KT 10SM CLR 32/12 A3002 RMK AO1 T03210119
KJAQ 181655Z AUTO 00000KT 10SM CLR 31/11 A3002 RMK AO1 T03130111
KJAQ 181635Z AUTO 18004KT 10SM CLR 30/11 A3002 RMK AO1 T03030107
KJAQ 181615Z AUTO 10003KT 10SM CLR 30/11 A3002 RMK AO1 T02950112
KJAQ 181555Z AUTO 07003KT 10SM CLR 29/11 A3002 RMK AO1 T02890108
KJAQ 181535Z AUTO 00000KT 10SM CLR 27/10 A3001 RMK AO1 T02720101
KJAQ 181515Z AUTO 33003KT 10SM CLR 27/10 A3000 RMK AO1 T02660100
KJAQ 181455Z AUTO 34003KT 10SM CLR 26/10 A3000 RMK AO1 T02640102
KJAQ 181435Z AUTO 33003KT 10SM CLR 27/10 A3000 RMK AO1 T02650098
KJAQ 181415Z AUTO 34004KT 10SM CLR 26/10 A3000 RMK AO1 T02550102
KJAQ 181355Z AUTO 34003KT 10SM CLR 26/10 A2999 RMK AO1 T02640101
KJAQ 181335Z AUTO 08003KT 10SM CLR 26/10 A2999 RMK AO1 T02610100
KJAQ 181315Z AUTO 08003KT 10SM CLR 25/10 A2998 RMK AO1 T02500100
KJAQ 181255Z AUTO 00000KT 10SM CLR 24/11 A2998 RMK AO1 T02400105
KJAQ 181235Z AUTO 21004KT 10SM CLR 25/11 A2998 RMK AO1 T02460106
KJAQ 181215Z AUTO 09003KT 10SM CLR 24/11 A2998 RMK AO1 T02380110
KJAQ 181155Z AUTO 16003KT 10SM CLR 25/11 A2999 RMK AO1 T02500109 10256 20230
KJAQ 181135Z AUTO 16003KT 10SM CLR 24/11 A2999 RMK AO1 T02440111
KJAQ 181115Z AUTO 00000KT 10SM CLR 24/11 A2999 RMK AO1 T02370107
KJAQ 181055Z AUTO 14003KT 10SM CLR 25/11 A2999 RMK AO1 T02510110
KJAQ 181035Z AUTO 13003KT 10SM CLR 25/10 A2999 RMK AO1 T02480098
KJAQ 181015Z AUTO 00000KT 10SM CLR 24/06 A2999 RMK AO1 T02420059
KJAQ 180955Z AUTO 00000KT 10SM CLR 24/07 A2999 RMK AO1 T02400066
KJAQ 180935Z AUTO 00000KT 10SM CLR 24/08 A3000 RMK AO1 T02360076
KJAQ 180855Z AUTO 00000KT 10SM CLR 23/08 A3000 RMK AO1 T02330080
KJAQ 180835Z AUTO 00000KT 10SM CLR 23/08 A3000 RMK AO1 T02340081
KJAQ 180815Z AUTO 14003KT 10SM CLR 24/09 A3000 RMK AO1 T02430086
KJAQ 180755Z AUTO 00000KT 10SM CLR 24/09 A2999 RMK AO1 T02350092 403650207
KJAQ 180735Z AUTO 00000KT 10SM CLR 23/09 A3000 RMK AO1 T02320092
KJAQ 180715Z AUTO 00000KT 10SM CLR 24/09 A3000 RMK AO1 T02400088
KJAQ 180655Z AUTO 13003KT 10SM CLR 25/09 A2999 RMK AO1 T02470090
KJAQ 180635Z AUTO 00000KT 10SM CLR 25/09 A2999 RMK AO1 T02480088
KJAQ 180555Z AUTO 15003KT 10SM CLR 26/07 A2999 RMK AO1 T02570066 10362 20257
KJAQ 180535Z AUTO 16003KT 10SM CLR 27/06 A2999 RMK AO1 T02710057
KJAQ 180515Z AUTO 18004KT 10SM CLR 28/05 A2999 RMK AO1 T02760054
KJAQ 180455Z AUTO 00000KT 10SM CLR 28/06 A2999 RMK AO1 T02790056
KJAQ 180435Z AUTO 00000KT 10SM CLR 29/05 A2999 RMK AO1 T02880053
KJAQ 180415Z AUTO 25003KT 10SM CLR 29/06 A2998 RMK AO1 T02930056
KJAQ 180355Z AUTO 26004KT 10SM CLR 29/06 A2998 RMK AO1 T02940063
KJAQ 180335Z AUTO 26005KT 10SM CLR 30/08 A2998 RMK AO1 T03010075
KJAQ 180315Z AUTO 27007KT 10SM CLR 31/08 A2997 RMK AO1 T03100080
KJAQ 180255Z AUTO 26007KT 10SM CLR 32/09 A2997 RMK AO1 T03200088
KJAQ 180235Z AUTO 26008KT 10SM CLR 33/10 A2997 RMK AO1 T03290102
KJAQ 180215Z AUTO 26008KT 10SM CLR 34/10 A2996 RMK AO1 T03370104
KJAQ 180155Z AUTO 26008KT 10SM CLR 34/10 A2996 RMK AO1 T03440101
KJAQ 180135Z AUTO 32006KT 10SM CLR 36/09 A2996 RMK AO1 T03560087
KJAQ 180115Z AUTO 29007KT 260V340 10SM CLR 36/08 A2996 RMK AO1 T03570079